Time;durP1;ratioP1;P1;durP2;ratioP2;P2;SDS_P1;SDS_P2;PMS_P1;PMS_P2;Temp;Humidity;BMP_temperature;BMP_pressure;BME280_temperature;BME280_humidity;BME280_pressure;Samples;Min_cycle;Max_cycle;Signal;HPM_P1;HPM_P2
2023/02/07 00:00:44;;;;;;;37.35;20.70;;;;;;;0.94;73.89;102640.84;5041734;28;20049;-61
2023/02/07 00:03:11;;;;;;;34.30;18.05;;;;;;;0.92;74.38;102649.28;5043567;28;20405;-61
2023/02/07 00:05:39;;;;;;;38.00;19.33;;;;;;;0.97;74.22;102638.56;5035020;28;20061;-60
2023/02/07 00:08:07;;;;;;;36.15;18.27;;;;;;;0.97;73.64;102633.09;5041506;28;20056;-61
2023/02/07 00:10:35;;;;;;;35.85;18.70;;;;;;;0.97;74.08;102640.47;5054145;28;20056;-60
2023/02/07 00:13:02;;;;;;;34.03;19.08;;;;;;;0.98;74.21;102632.03;5043075;28;20065;-61
2023/02/07 00:15:31;;;;;;;27.50;16.77;;;;;;;1.00;73.34;102632.69;5048631;28;20064;-60
2023/02/07 00:17:58;;;;;;;32.72;18.67;;;;;;;0.99;72.92;102636.47;5040247;28;20151;-61
2023/02/07 00:20:26;;;;;;;37.63;19.67;;;;;;;0.96;72.91;102633.28;5052193;28;20508;-60
2023/02/07 00:22:54;;;;;;;35.20;18.77;;;;;;;0.91;73.44;102625.63;5052019;28;20052;-60
2023/02/07 00:25:22;;;;;;;29.15;16.00;;;;;;;0.90;73.30;102623.94;5039801;28;20709;-60
2023/02/07 00:27:49;;;;;;;30.83;15.60;;;;;;;0.90;72.92;102623.94;5049367;28;20054;-60
2023/02/07 00:30:17;;;;;;;28.85;15.95;;;;;;;0.90;72.70;102628.56;5053048;28;20064;-61
2023/02/07 00:32:45;;;;;;;27.85;15.80;;;;;;;0.86;73.04;102617.16;5053489;28;20436;-61
2023/02/07 00:35:13;;;;;;;35.38;18.77;;;;;;;0.76;72.27;102622.97;5040904;28;20049;-61
2023/02/07 00:37:43;;;;;;;26.67;15.35;;;;;;;0.75;72.40;102617.66;5034052;28;20052;-61
2023/02/07 00:40:13;;;;;;;33.63;18.83;;;;;;;0.72;72.33;102620.81;5049114;28;20061;-61
2023/02/07 00:42:40;;;;;;;34.40;16.60;;;;;;;0.64;72.37;102613.56;5052556;28;20048;-61
2023/02/07 00:45:08;;;;;;;28.38;15.50;;;;;;;0.62;72.31;102610.16;5042599;28;20053;-61
2023/02/07 00:47:35;;;;;;;30.08;16.40;;;;;;;0.64;72.17;102613.56;5040347;28;20045;-61
2023/02/07 00:50:05;;;;;;;30.98;16.40;;;;;;;0.58;72.24;102606.09;5043995;28;20060;-61
2023/02/07 00:52:32;;;;;;;31.02;15.25;;;;;;;0.56;72.13;102608.19;5033619;28;20045;-61
2023/02/07 00:54:59;;;;;;;28.75;15.48;;;;;;;0.53;72.14;102616.81;5043834;28;20049;-61
2023/02/07 00:57:26;;;;;;;27.95;14.38;;;;;;;0.49;71.36;102623.75;5037005;28;20080;-61
2023/02/07 00:59:54;;;;;;;26.83;14.85;;;;;;;0.46;72.01;102621.38;5047893;28;20056;-61
2023/02/07 01:02:21;;;;;;;26.35;14.60;;;;;;;0.47;72.21;102617.59;5042257;28;20064;-61
2023/02/07 01:04:48;;;;;;;26.38;15.27;;;;;;;0.46;71.96;102619.47;5041656;28;20401;-61
2023/02/07 01:07:17;;;;;;;27.80;14.85;;;;;;;0.42;71.79;102617.31;5049360;28;20084;-61
2023/02/07 01:09:44;;;;;;;28.05;15.10;;;;;;;0.39;71.69;102622.16;5052977;28;20485;-61
2023/02/07 01:12:15;;;;;;;29.67;15.15;;;;;;;0.36;71.72;102619.81;5043824;28;20057;-61
2023/02/07 01:14:42;;;;;;;30.38;16.85;;;;;;;0.31;71.62;102605.81;5046830;28;20072;-60
2023/02/07 01:17:09;;;;;;;33.05;16.58;;;;;;;0.24;71.23;102602.16;5041185;28;20045;-61
2023/02/07 01:19:36;;;;;;;30.70;16.65;;;;;;;0.20;71.46;102609.06;5041962;28;20045;-60
2023/02/07 01:22:04;;;;;;;35.13;16.73;;;;;;;0.23;71.37;102599.59;5047334;28;20477;-61
2023/02/07 01:24:34;;;;;;;30.52;17.15;;;;;;;0.14;71.11;102598.88;5050587;28;20060;-61
2023/02/07 01:27:01;;;;;;;25.65;14.63;;;;;;;0.16;71.30;102599.53;5046272;28;20516;-61
2023/02/07 01:29:28;;;;;;;29.17;14.75;;;;;;;0.20;71.29;102587.97;5041447;28;20049;-61
2023/02/07 01:31:55;;;;;;;25.17;14.18;;;;;;;0.21;71.41;102586.13;5047934;28;20064;-61
2023/02/07 01:34:26;;;;;;;29.23;15.07;;;;;;;0.17;70.82;102590.28;5032907;28;20437;-61
2023/02/07 01:36:53;;;;;;;27.98;14.68;;;;;;;0.11;71.04;102575.44;5034647;28;20057;-62
2023/02/07 01:39:20;;;;;;;22.05;13.30;;;;;;;0.12;70.96;102573.56;5033578;28;20053;-61
2023/02/07 01:41:49;;;;;;;26.30;14.38;;;;;;;0.08;70.91;102586.78;5033565;28;20490;-61
2023/02/07 01:44:53;;;;;;;22.67;12.85;;;;;;;0.08;70.70;102585.94;5037966;28;20049;-61
2023/02/07 01:47:23;;;;;;;28.38;15.63;;;;;;;0.04;71.01;102592.84;5051932;28;20053;-61
2023/02/07 01:49:54;;;;;;;32.60;15.45;;;;;;;0.03;70.88;102588.41;5052621;28;20049;-61
2023/02/07 01:52:27;;;;;;;26.65;13.98;;;;;;;-0.01;70.83;102583.31;5052851;28;20057;-61
2023/02/07 01:55:00;;;;;;;25.95;14.02;;;;;;;0.01;70.78;102585.03;5052851;28;20048;-61
2023/02/07 01:57:29;;;;;;;27.70;15.40;;;;;;;-0.04;70.71;102583.72;5046727;28;20057;-62
2023/02/07 01:59:58;;;;;;;23.80;12.90;;;;;;;-0.13;71.10;102586.72;5050431;28;20060;-61
2023/02/07 02:02:29;;;;;;;22.38;13.15;;;;;;;-0.18;70.56;102587.31;5036745;28;20053;-61
2023/02/07 02:04:58;;;;;;;24.77;13.88;;;;;;;-0.14;71.00;102596.00;5041287;28;20053;-61
2023/02/07 02:07:28;;;;;;;23.77;13.88;;;;;;;-0.12;71.08;102589.28;5037640;28;20473;-61
2023/02/07 02:09:55;;;;;;;26.15;13.85;;;;;;;-0.10;71.06;102598.16;5049930;28;20053;-61
2023/02/07 02:12:41;;;;;;;23.60;14.60;;;;;;;-0.08;70.95;102585.13;5051397;28;20049;-61
2023/02/07 02:15:32;;;;;;;21.77;12.40;;;;;;;-0.06;71.17;102591.25;5051332;28;20080;-61
2023/02/07 02:18:22;;;;;;;20.60;12.48;;;;;;;-0.04;70.87;102585.59;5050961;28;20057;-61
2023/02/07 02:21:23;;;;;;;23.83;12.98;;;;;;;-0.16;70.54;102596.19;5052404;28;20053;-61
2023/02/07 02:24:24;;;;;;;21.90;11.77;;;;;;;-0.23;70.70;102609.78;5048859;28;20045;-60
2023/02/07 02:27:00;;;;;;;24.10;13.18;;;;;;;-0.28;70.47;102600.44;5027601;28;20045;-61
2023/02/07 02:30:06;;;;;;;26.80;14.20;;;;;;;-0.31;70.59;102601.69;5044732;28;20045;-61
2023/02/07 02:33:16;;;;;;;22.73;11.85;;;;;;;-0.32;70.63;102604.59;5026212;28;20060;-61
2023/02/07 02:35:54;;;;;;;22.60;13.23;;;;;;;-0.35;70.58;102605.00;5019186;28;20060;-61
2023/02/07 02:38:31;;;;;;;21.63;12.68;;;;;;;-0.35;70.88;102607.72;5042006;28;20045;-61
2023/02/07 02:41:05;;;;;;;25.63;13.18;;;;;;;-0.38;70.15;102608.09;5037211;28;20076;-61
2023/02/07 02:43:41;;;;;;;23.95;13.65;;;;;;;-0.41;70.63;102620.28;5047643;28;20420;-61
2023/02/07 02:46:13;;;;;;;21.60;11.40;;;;;;;-0.44;70.55;102616.03;5047196;28;20127;-61
2023/02/07 02:48:43;;;;;;;23.58;12.18;;;;;;;-0.42;70.90;102615.81;5042231;28;20053;-61
2023/02/07 02:51:12;;;;;;;30.02;13.13;;;;;;;-0.52;70.45;102607.91;5050135;28;20417;-61
2023/02/07 02:53:39;;;;;;;23.08;12.65;;;;;;;-0.48;70.24;102598.28;5036412;28;20396;-61
2023/02/07 02:56:51;;;;;;;21.65;12.05;;;;;;;-0.48;70.40;102597.44;5053456;28;20070;-61
2023/02/07 02:59:37;;;;;;;21.27;12.23;;;;;;;-0.59;70.27;102609.66;5036224;28;20057;-61
2023/02/07 03:02:21;;;;;;;21.60;11.00;;;;;;;-0.56;70.17;102612.06;5048755;28;20050;-61
2023/02/07 03:05:07;;;;;;;25.58;12.80;;;;;;;-0.61;70.46;102611.75;5042513;28;20049;-60
2023/02/07 03:07:47;;;;;;;17.42;10.23;;;;;;;-0.54;70.51;102604.50;5039372;28;20053;-61
2023/02/07 03:10:25;;;;;;;18.73;10.30;;;;;;;-0.53;69.95;102608.94;5038527;28;20061;-61
2023/02/07 03:12:58;;;;;;;18.77;10.70;;;;;;;-0.54;70.57;102609.97;5047826;28;20057;-61
2023/02/07 03:15:34;;;;;;;18.77;10.68;;;;;;;-0.49;70.46;102607.50;5058586;28;20496;-61
2023/02/07 03:18:09;;;;;;;18.73;11.15;;;;;;;-0.56;70.06;102613.94;5058228;28;20057;-61
2023/02/07 03:20:41;;;;;;;20.30;10.95;;;;;;;-0.51;69.90;102612.31;5058411;28;20374;-61
2023/02/07 03:23:11;;;;;;;22.20;11.30;;;;;;;-0.52;69.95;102613.38;5058424;28;20056;-60
2023/02/07 03:25:41;;;;;;;17.70;10.10;;;;;;;-0.49;69.51;102609.41;5058533;28;20383;-60
2023/02/07 03:28:10;;;;;;;21.55;11.13;;;;;;;-0.64;69.70;102614.88;5056658;28;20068;-60
2023/02/07 03:30:40;;;;;;;17.60;10.23;;;;;;;-0.74;70.03;102615.13;5058708;28;20477;-61
2023/02/07 03:33:11;;;;;;;24.38;11.07;;;;;;;-0.66;69.41;102606.00;5058000;28;20824;-60
2023/02/07 03:35:41;;;;;;;16.95;10.05;;;;;;;-0.64;69.65;102618.44;5055434;28;20048;-60
2023/02/07 03:38:11;;;;;;;17.60;10.13;;;;;;;-0.56;69.49;102628.47;5058068;28;20071;-60
2023/02/07 03:40:42;;;;;;;18.85;11.57;;;;;;;-0.58;69.86;102608.66;5058485;28;20481;-60
2023/02/07 03:43:15;;;;;;;19.40;10.98;;;;;;;-0.60;70.18;102608.00;5041820;28;20049;-61
2023/02/07 03:45:43;;;;;;;16.65;9.45;;;;;;;-0.61;69.72;102614.47;5038370;28;20057;-60
2023/02/07 03:48:10;;;;;;;19.52;10.70;;;;;;;-0.68;69.91;102630.81;5049189;28;20061;-60
2023/02/07 03:50:43;;;;;;;15.93;9.73;;;;;;;-0.76;69.63;102616.38;5058129;28;20056;-60
2023/02/07 03:53:11;;;;;;;16.17;9.32;;;;;;;-0.82;69.72;102618.81;5058463;28;20060;-60
2023/02/07 03:55:42;;;;;;;18.15;9.25;;;;;;;-0.83;69.72;102614.38;5055081;28;20481;-60
2023/02/07 03:58:09;;;;;;;15.45;9.05;;;;;;;-0.84;69.82;102620.00;5050882;28;20049;-61
2023/02/07 04:00:36;;;;;;;17.13;10.15;;;;;;;-0.86;69.71;102616.63;5037762;28;20479;-61
2023/02/07 04:03:05;;;;;;;16.33;9.25;;;;;;;-0.96;69.70;102616.91;5037706;28;20049;-60
2023/02/07 04:05:35;;;;;;;15.45;8.55;;;;;;;-0.93;69.51;102621.97;5050355;28;20056;-60
2023/02/07 04:08:02;;;;;;;14.55;8.82;;;;;;;-0.95;69.58;102617.75;5051615;28;20056;-60
2023/02/07 04:10:31;;;;;;;18.15;9.82;;;;;;;-0.93;69.66;102621.13;5043959;28;20064;-60
2023/02/07 04:12:58;;;;;;;15.40;9.02;;;;;;;-0.94;69.80;102616.72;5054580;28;20052;-60
2023/02/07 04:15:25;;;;;;;18.00;9.73;;;;;;;-0.96;69.16;102605.94;5045787;28;20045;-61
2023/02/07 04:17:52;;;;;;;16.35;9.60;;;;;;;-0.94;69.50;102613.97;5049691;28;20056;-61
2023/02/07 04:20:20;;;;;;;16.08;10.48;;;;;;;-0.95;70.08;102610.38;5049334;28;20060;-60
2023/02/07 04:22:47;;;;;;;18.25;10.05;;;;;;;-0.96;69.46;102608.69;5045414;28;20056;-61
2023/02/07 04:25:14;;;;;;;20.90;11.15;;;;;;;-1.03;69.37;102610.44;5040643;28;20045;-61
2023/02/07 04:27:43;;;;;;;20.38;10.63;;;;;;;-1.20;69.81;102608.88;5035408;28;20056;-60
2023/02/07 04:30:11;;;;;;;16.23;9.77;;;;;;;-1.14;69.50;102613.63;5042394;28;20060;-60
2023/02/07 04:32:39;;;;;;;16.83;9.50;;;;;;;-1.10;70.12;102604.03;5034847;28;20054;-61
2023/02/07 04:35:07;;;;;;;20.52;11.40;;;;;;;-1.05;69.75;102617.97;5034303;28;20045;-60
2023/02/07 04:37:34;;;;;;;18.63;12.25;;;;;;;-1.06;70.06;102619.03;5041075;28;20406;-61
2023/02/07 04:40:01;;;;;;;23.60;14.55;;;;;;;-1.04;69.47;102611.50;5043958;28;20493;-60
2023/02/07 04:42:28;;;;;;;20.80;14.52;;;;;;;-1.04;68.85;102625.16;5053231;28;20379;-60
2023/02/07 04:44:57;;;;;;;22.23;14.25;;;;;;;-1.06;69.73;102610.81;5053889;28;20048;-60
2023/02/07 04:47:28;;;;;;;21.90;13.00;;;;;;;-1.09;69.95;102609.31;5048458;28;20052;-60
2023/02/07 04:49:55;;;;;;;17.23;12.85;;;;;;;-1.12;68.92;102617.03;5035335;28;20054;-60
2023/02/07 04:52:22;;;;;;;17.38;10.88;;;;;;;-1.16;69.22;102622.00;5033514;28;20064;-60
2023/02/07 04:54:50;;;;;;;17.02;10.25;;;;;;;-1.23;69.66;102616.44;5043613;28;20068;-60
2023/02/07 04:57:17;;;;;;;17.67;11.25;;;;;;;-1.21;69.07;102616.25;5053732;28;20504;-60
2023/02/07 04:59:44;;;;;;;17.10;9.85;;;;;;;-1.17;69.59;102614.00;5053727;28;20049;-60
2023/02/07 05:02:13;;;;;;;15.95;10.48;;;;;;;-1.19;69.54;102616.06;5049292;28;20056;-60
2023/02/07 05:04:40;;;;;;;13.38;8.23;;;;;;;-1.15;69.70;102615.53;5053389;28;20049;-61
2023/02/07 05:07:07;;;;;;;12.85;8.18;;;;;;;-1.15;69.72;102610.06;5053577;28;20080;-60
2023/02/07 05:09:34;;;;;;;15.48;9.23;;;;;;;-1.18;69.31;102613.13;5050675;28;20052;-59
2023/02/07 05:12:02;;;;;;;14.10;8.88;;;;;;;-1.19;69.88;102616.06;5053356;28;20485;-60
2023/02/07 05:14:29;;;;;;;14.95;8.80;;;;;;;-1.18;69.56;102617.75;5053287;28;20056;-60
2023/02/07 05:16:59;;;;;;;15.43;10.02;;;;;;;-1.20;69.81;102628.03;5048955;28;20414;-60
2023/02/07 05:19:28;;;;;;;18.10;9.55;;;;;;;-1.22;69.31;102614.53;5032828;28;20057;-60
2023/02/07 05:21:56;;;;;;;12.18;8.48;;;;;;;-1.19;69.08;102614.19;5033803;28;20053;-60
2023/02/07 05:24:23;;;;;;;14.15;9.38;;;;;;;-1.18;69.45;102615.03;5034929;28;20056;-60
2023/02/07 05:26:50;;;;;;;13.88;8.82;;;;;;;-1.24;69.61;102616.59;5052541;28;20052;-60
2023/02/07 05:29:18;;;;;;;16.25;9.30;;;;;;;-1.36;69.92;102607.16;5036375;28;20061;-61
2023/02/07 05:34:32;;;;;;;14.35;8.25;;;;;;;-1.29;69.35;102608.09;5039228;28;20056;-60
2023/02/07 05:36:59;;;;;;;16.65;8.93;;;;;;;-1.40;68.89;102606.66;5033561;28;20070;-60
2023/02/07 05:39:26;;;;;;;14.95;8.82;;;;;;;-1.46;69.35;102615.59;5033587;28;20060;-60
2023/02/07 05:41:53;;;;;;;13.82;8.60;;;;;;;-1.42;69.39;102605.16;5053221;28;20056;-61
2023/02/07 05:44:20;;;;;;;18.92;10.68;;;;;;;-1.39;69.12;102605.59;5052960;28;20378;-60
2023/02/07 05:46:48;;;;;;;19.50;11.45;;;;;;;-1.38;69.39;102604.59;5053208;28;20053;-60
2023/02/07 05:49:15;;;;;;;19.02;10.52;;;;;;;-1.34;69.60;102602.34;5052466;28;20391;-61
2023/02/07 05:51:44;;;;;;;19.70;11.32;;;;;;;-1.33;70.34;102598.56;5052796;28;20414;-61
2023/02/07 05:54:11;;;;;;;12.98;9.20;;;;;;;-1.36;69.26;102602.53;5051289;28;20052;-60
2023/02/07 05:56:39;;;;;;;15.90;9.35;;;;;;;-1.33;69.46;102602.16;5052366;28;20053;-60
2023/02/07 05:59:06;;;;;;;15.50;9.95;;;;;;;-1.30;69.44;102612.72;5052801;28;20049;-61
2023/02/07 06:01:33;;;;;;;15.30;9.70;;;;;;;-1.34;69.19;102614.13;5052489;28;20060;-60
2023/02/07 06:04:00;;;;;;;15.35;9.23;;;;;;;-1.44;69.27;102613.53;5052336;28;20059;-60
2023/02/07 06:06:28;;;;;;;17.40;9.50;;;;;;;-1.37;68.90;102609.00;5052095;28;20422;-61
2023/02/07 06:08:56;;;;;;;14.32;9.15;;;;;;;-1.42;68.94;102614.19;5047102;28;20056;-60
2023/02/07 06:11:26;;;;;;;20.17;10.73;;;;;;;-1.35;69.14;102609.69;5032549;28;20060;-61
2023/02/07 06:13:53;;;;;;;21.77;11.90;;;;;;;-1.34;69.39;102625.06;5032721;28;20395;-61
2023/02/07 06:16:21;;;;;;;18.20;10.32;;;;;;;-1.36;69.36;102620.81;5035303;28;20054;-62
2023/02/07 06:18:48;;;;;;;19.98;11.85;;;;;;;-1.32;69.32;102628.47;5034307;28;20076;-59
2023/02/07 06:21:18;;;;;;;20.30;11.73;;;;;;;-1.38;69.63;102617.41;5035018;28;20050;-60
2023/02/07 06:23:47;;;;;;;21.23;10.57;;;;;;;-1.32;70.18;102625.72;5032371;28;20053;-61
2023/02/07 06:26:19;;;;;;;16.98;10.60;;;;;;;-1.30;69.14;102620.06;5048869;28;20053;-60
2023/02/07 06:28:47;;;;;;;16.40;10.52;;;;;;;-1.32;69.02;102616.69;5047814;28;20496;-61
2023/02/07 06:31:14;;;;;;;14.07;9.70;;;;;;;-1.37;69.36;102619.94;5047410;28;20072;-60
2023/02/07 06:33:41;;;;;;;16.95;10.15;;;;;;;-1.38;69.04;102629.19;5050303;28;20049;-60
2023/02/07 06:36:09;;;;;;;20.88;10.93;;;;;;;-1.41;69.75;102628.69;5031494;28;20100;-60
2023/02/07 06:38:36;;;;;;;16.48;10.25;;;;;;;-1.46;68.94;102629.25;5032900;28;20060;-61
2023/02/07 06:41:04;;;;;;;15.57;9.65;;;;;;;-1.45;69.66;102642.75;5041551;28;20053;-59
2023/02/07 06:43:33;;;;;;;18.48;10.82;;;;;;;-1.48;69.02;102642.25;5038611;28;20076;-60
2023/02/07 06:46:00;;;;;;;19.38;12.45;;;;;;;-1.39;69.17;102638.41;5035199;28;20049;-62
2023/02/07 06:48:28;;;;;;;24.42;13.20;;;;;;;-1.44;70.01;102640.84;5040850;28;20053;-61
2023/02/07 06:50:55;;;;;;;24.50;13.23;;;;;;;-1.45;69.31;102641.88;5047075;28;20053;-61
2023/02/07 06:53:22;;;;;;;25.90;12.80;;;;;;;-1.39;69.72;102646.59;5045783;28;20064;-61
2023/02/07 06:55:50;;;;;;;21.40;13.05;;;;;;;-1.40;69.56;102652.28;5045604;28;20045;-61
2023/02/07 06:58:17;;;;;;;20.80;12.45;;;;;;;-1.37;69.96;102657.38;5047954;28;20406;-62
2023/02/07 07:00:46;;;;;;;18.50;11.35;;;;;;;-1.34;69.36;102660.59;5046649;28;20054;-60
2023/02/07 07:03:14;;;;;;;21.65;11.75;;;;;;;-1.34;68.95;102663.34;5039074;28;20482;-61
2023/02/07 07:05:43;;;;;;;22.00;12.48;;;;;;;-1.28;69.58;102659.00;5032322;28;20053;-61
2023/02/07 07:08:14;;;;;;;19.55;11.55;;;;;;;-1.30;69.78;102672.88;5032981;28;20057;-61
2023/02/07 07:10:41;;;;;;;17.55;10.90;;;;;;;-1.24;69.64;102679.47;5046008;28;20516;-62
2023/02/07 07:13:09;;;;;;;17.50;10.80;;;;;;;-1.19;69.48;102673.50;5032608;28;20053;-61
2023/02/07 07:15:36;;;;;;;16.65;10.13;;;;;;;-1.18;69.50;102676.03;5032518;28;20045;-61
2023/02/07 07:18:04;;;;;;;16.00;10.70;;;;;;;-1.19;69.35;102670.75;5051634;28;20053;-62
2023/02/07 07:20:32;;;;;;;16.60;10.75;;;;;;;-1.13;69.20;102672.78;5051664;28;20057;-63
2023/02/07 07:22:59;;;;;;;18.25;10.25;;;;;;;-1.17;69.07;102677.75;5051810;28;20053;-62
2023/02/07 07:25:26;;;;;;;17.83;10.60;;;;;;;-1.13;68.36;102664.56;5048719;28;20056;-62
2023/02/07 07:27:53;;;;;;;16.77;10.10;;;;;;;-1.08;67.99;102673.06;5051220;28;20401;-62
2023/02/07 07:30:21;;;;;;;15.25;9.80;;;;;;;-1.00;67.78;102661.22;5050196;28;20518;-62
2023/02/07 07:32:48;;;;;;;14.88;9.40;;;;;;;-1.07;68.26;102678.34;5043732;28;20057;-62
2023/02/07 07:35:18;;;;;;;19.30;11.25;;;;;;;-0.83;68.19;102674.56;5043363;28;20057;-62
2023/02/07 07:37:45;;;;;;;16.10;9.90;;;;;;;-0.68;67.64;102685.53;5044720;28;20401;-62
2023/02/07 07:40:12;;;;;;;14.00;9.43;;;;;;;-0.19;67.26;102686.94;5043064;28;20064;-62
2023/02/07 07:42:39;;;;;;;15.20;9.25;;;;;;;0.93;66.21;102680.31;5049573;28;20504;-62
2023/02/07 07:45:08;;;;;;;13.23;8.48;;;;;;;2.39;63.06;102678.63;5052086;28;20450;-62
2023/02/07 07:47:36;;;;;;;13.60;8.60;;;;;;;4.04;60.91;102662.38;5051492;28;20060;-63
2023/02/07 07:50:03;;;;;;;13.98;8.73;;;;;;;5.54;56.90;102657.44;5051101;28;20056;-62
2023/02/07 07:52:33;;;;;;;11.50;7.85;;;;;;;6.28;54.11;102658.41;5044393;28;20489;-62
2023/02/07 07:55:01;;;;;;;11.57;6.30;;;;;;;7.00;51.81;102657.63;5045406;28;20436;-59
2023/02/07 07:57:28;;;;;;;11.15;7.13;;;;;;;7.09;51.02;102664.50;5049514;28;20052;-58
2023/02/07 07:59:56;;;;;;;9.63;7.85;;;;;;;5.87;49.93;102669.03;5039101;28;20056;-59
2023/02/07 08:02:30;;;;;;;11.88;7.78;;;;;;;4.32;52.33;102665.91;5037290;28;20068;-59
2023/02/07 08:04:57;;;;;;;10.38;7.53;;;;;;;4.29;53.27;102666.34;5044972;28;20052;-65
2023/02/07 08:07:25;;;;;;;10.63;6.88;;;;;;;4.98;52.52;102670.22;5036089;28;20056;-60
2023/02/07 08:09:53;;;;;;;13.13;8.18;;;;;;;6.21;50.42;102677.00;5043917;28;20045;-64
2023/02/07 08:12:20;;;;;;;10.35;7.97;;;;;;;7.03;48.27;102659.91;5043497;28;20050;-60
2023/02/07 08:14:48;;;;;;;14.85;9.07;;;;;;;7.50;47.16;102662.78;5046218;28;20045;-58
2023/02/07 08:17:15;;;;;;;12.95;9.38;;;;;;;7.70;47.29;102662.41;5045419;28;20379;-59
2023/02/07 08:19:42;;;;;;;12.38;8.20;;;;;;;8.66;46.36;102668.41;5038750;28;20057;-58
2023/02/07 08:22:09;;;;;;;10.18;8.00;;;;;;;10.19;43.28;102663.72;5041559;28;20505;-59
2023/02/07 08:24:37;;;;;;;11.50;7.45;;;;;;;11.81;39.92;102662.03;5042561;28;20182;-59
2023/02/07 08:27:06;;;;;;;8.73;6.90;;;;;;;13.28;38.07;102648.88;5047400;28;20410;-59
2023/02/07 08:29:33;;;;;;;9.23;7.10;;;;;;;14.67;35.71;102663.44;5041232;28;20060;-61
2023/02/07 08:32:00;;;;;;;8.90;6.75;;;;;;;16.23;32.70;102657.91;5039249;28;20390;-60
2023/02/07 08:34:30;;;;;;;8.43;6.53;;;;;;;17.18;31.16;102651.56;5042894;28;20481;-61
2023/02/07 08:36:57;;;;;;;8.88;7.43;;;;;;;18.33;28.66;102648.06;5040338;28;20045;-59
2023/02/07 08:39:25;;;;;;;8.43;6.55;;;;;;;18.83;28.57;102659.41;5048348;28;20056;-59
2023/02/07 08:41:52;;;;;;;11.50;9.05;;;;;;;19.74;27.10;102649.00;5042864;28;20049;-63
2023/02/07 08:44:21;;;;;;;8.98;7.40;;;;;;;20.56;25.86;102652.31;5047796;28;20119;-61
2023/02/07 08:47:04;;;;;;;9.20;7.03;;;;;;;20.96;24.51;102642.91;5051295;28;20049;-64
2023/02/07 08:49:31;;;;;;;9.85;7.18;;;;;;;21.76;23.89;102637.66;5044298;28;20045;-59
2023/02/07 08:51:59;;;;;;;7.85;6.97;;;;;;;22.44;23.03;102639.69;5043301;28;20061;-61
2023/02/07 08:54:26;;;;;;;8.10;6.95;;;;;;;22.66;22.99;102639.41;5042781;28;20092;-60
2023/02/07 08:56:53;;;;;;;7.68;6.00;;;;;;;23.10;22.98;102639.91;5040404;28;20052;-60
2023/02/07 08:59:22;;;;;;;7.22;6.50;;;;;;;23.90;21.89;102638.78;5040959;28;20079;-60
2023/02/07 09:01:50;;;;;;;8.15;6.70;;;;;;;23.91;21.61;102631.88;5045520;28;20421;-60
2023/02/07 09:04:17;;;;;;;7.80;6.45;;;;;;;24.43;21.18;102635.25;5046726;28;20049;-61
2023/02/07 09:06:44;;;;;;;8.20;6.13;;;;;;;25.57;20.01;102617.09;5043951;28;20052;-60
2023/02/07 09:09:12;;;;;;;7.38;6.68;;;;;;;26.07;19.76;102616.41;5042099;28;20057;-61
2023/02/07 09:11:39;;;;;;;8.90;6.82;;;;;;;26.14;19.50;102624.31;5046871;28;20057;-59
2023/02/07 09:14:06;;;;;;;11.00;9.63;;;;;;;26.72;18.75;102620.81;5040049;28;20057;-60
2023/02/07 09:16:35;;;;;;;9.27;8.38;;;;;;;27.10;18.33;102622.06;5044695;28;20048;-60
2023/02/07 09:19:02;;;;;;;10.18;8.52;;;;;;;27.28;18.09;102616.75;5044427;28;20048;-60
2023/02/07 09:21:32;;;;;;;8.93;7.22;;;;;;;27.53;17.90;102612.31;5046047;28;20049;-59
2023/02/07 09:23:59;;;;;;;8.98;8.02;;;;;;;27.49;17.69;102617.16;5046479;28;20057;-59
2023/02/07 09:26:26;;;;;;;8.50;7.70;;;;;;;28.08;17.61;102612.09;5048601;28;20053;-60
2023/02/07 09:28:54;;;;;;;13.45;12.25;;;;;;;28.18;17.44;102616.34;5050073;28;20049;-60
2023/02/07 09:31:23;;;;;;;8.40;7.40;;;;;;;28.83;16.44;102621.03;5048521;28;20052;-66
2023/02/07 09:33:52;;;;;;;10.80;9.75;;;;;;;28.95;16.27;102608.47;5048278;28;20056;-65
2023/02/07 09:36:21;;;;;;;12.18;11.07;;;;;;;29.76;16.22;102609.84;5045752;28;20060;-64
2023/02/07 09:38:49;;;;;;;8.93;7.90;;;;;;;29.84;15.44;102608.69;5046549;28;20053;-64
2023/02/07 09:41:25;;;;;;;9.00;8.20;;;;;;;30.19;16.43;102618.00;5048214;28;20068;-67
2023/02/07 09:44:01;;;;;;;9.48;8.52;;;;;;;30.69;15.45;102616.31;5045216;28;20501;-66
2023/02/07 09:46:34;;;;;;;12.43;11.23;;;;;;;31.30;14.57;102610.00;5046624;28;20387;-68
2023/02/07 09:49:10;;;;;;;10.52;9.48;;;;;;;31.43;15.09;102611.28;5047492;28;20430;-67
2023/02/07 09:51:39;;;;;;;9.65;8.75;;;;;;;31.76;14.38;102615.06;5047534;28;20061;-66
2023/02/07 09:54:16;;;;;;;9.82;8.82;;;;;;;31.80;14.47;102621.66;5046567;28;20513;-61
2023/02/07 09:56:44;;;;;;;9.65;8.75;;;;;;;31.99;14.38;102623.34;5049081;28;20049;-61
2023/02/07 09:59:23;;;;;;;6.90;6.30;;;;;;;31.65;14.27;102614.25;5048061;28;20068;-59
2023/02/07 10:01:53;;;;;;;7.22;6.50;;;;;;;31.94;14.33;102613.03;5048348;28;20064;-60
2023/02/07 10:04:30;;;;;;;7.28;6.35;;;;;;;32.13;14.60;102619.66;5038223;28;20051;-59
2023/02/07 10:06:59;;;;;;;9.05;7.65;;;;;;;32.63;14.34;102610.91;5041253;28;20050;-61
2023/02/07 10:09:27;;;;;;;;;;;;;;;32.86;13.30;102609.59;5043020;28;20052;-61
2023/02/07 10:12:04;;;;;;;7.05;5.78;;;;;;;33.22;13.46;102606.56;5041253;28;20362;-61
2023/02/07 10:14:54;;;;;;;7.00;6.00;;;;;;;33.72;13.22;102598.41;5043009;28;20049;-61
2023/02/07 10:17:35;;;;;;;6.40;5.80;;;;;;;34.96;12.86;102600.50;5044857;28;20056;-61
2023/02/07 10:20:22;;;;;;;5.50;4.97;;;;;;;34.75;12.03;102595.81;5044390;28;20060;-62
2023/02/07 10:23:00;;;;;;;6.03;5.15;;;;;;;34.90;12.73;102601.41;5044480;28;20053;-62
2023/02/07 10:25:36;;;;;;;5.13;4.55;;;;;;;36.02;11.58;102594.78;5044590;28;20061;-61
2023/02/07 10:28:25;;;;;;;5.78;4.35;;;;;;;36.07;11.67;102597.19;5047229;28;20401;-60
2023/02/07 10:30:57;;;;;;;4.45;3.95;;;;;;;36.24;11.54;102601.84;5045040;28;20060;-63
2023/02/07 10:33:30;;;;;;;4.05;3.60;;;;;;;36.56;11.04;102606.22;5046250;28;20068;-61
2023/02/07 10:36:02;;;;;;;4.40;4.00;;;;;;;37.03;10.44;102611.91;5041289;28;20259;-61
2023/02/07 10:38:37;;;;;;;4.00;3.60;;;;;;;37.38;10.66;102609.50;5040687;28;20963;-61
2023/02/07 10:41:13;;;;;;;4.15;3.38;;;;;;;37.28;10.51;102610.56;5045343;28;20049;-61
2023/02/07 10:43:45;;;;;;;4.00;3.60;;;;;;;37.82;10.55;102610.13;5046265;28;20057;-61
2023/02/07 10:46:15;;;;;;;4.18;3.78;;;;;;;37.61;10.28;102599.00;5045334;28;20060;-61
2023/02/07 10:48:42;;;;;;;4.78;3.60;;;;;;;37.81;10.27;102604.75;5043848;28;20045;-61
2023/02/07 10:51:26;;;;;;;4.82;4.00;;;;;;;38.72;9.80;102608.50;5043725;28;20064;-61
2023/02/07 10:54:06;;;;;;;7.30;6.35;;;;;;;39.52;9.17;102607.75;5040178;28;20056;-62
2023/02/07 10:56:39;;;;;;;7.75;6.97;;;;;;;39.46;9.49;102609.63;5043505;28;20056;-60
2023/02/07 10:59:23;;;;;;;7.95;6.90;;;;;;;39.46;9.34;102611.72;5042099;28;20107;-60
2023/02/07 11:01:54;;;;;;;4.72;4.22;;;;;;;39.47;9.21;102607.53;5042911;28;20057;-61
2023/02/07 11:04:35;;;;;;;16.85;15.07;;;;;;;39.61;8.96;102609.13;5043423;28;20060;-60
2023/02/07 11:07:14;;;;;;;4.93;4.45;;;;;;;40.28;8.74;102608.09;5043236;28;20068;-60
2023/02/07 11:09:41;;;;;;;6.88;6.22;;;;;;;40.15;8.63;102608.13;5041985;28;20080;-60
2023/02/07 11:12:15;;;;;;;12.40;11.30;;;;;;;40.51;8.50;102601.00;5044824;28;20092;-60
2023/02/07 11:15:00;;;;;;;6.28;5.60;;;;;;;39.77;8.64;102612.75;5040923;28;20053;-60
2023/02/07 11:17:28;;;;;;;8.82;7.93;;;;;;;40.12;8.77;102609.09;5046758;28;20045;-59
2023/02/07 11:19:56;;;;;;;4.90;4.45;;;;;;;39.97;8.63;102606.66;5047123;28;20052;-61
2023/02/07 11:22:28;;;;;;;6.83;6.17;;;;;;;39.90;8.66;102606.94;5042173;28;20410;-61
2023/02/07 11:25:07;;;;;;;5.68;4.30;;;;;;;40.22;8.75;102610.00;5049129;28;20052;-61
2023/02/07 11:27:39;;;;;;;4.10;3.80;;;;;;;40.34;8.59;102597.47;5046816;28;20041;-59
2023/02/07 11:30:14;;;;;;;4.78;4.28;;;;;;;39.83;8.44;102598.38;5045819;28;20092;-60
2023/02/07 11:32:42;;;;;;;4.50;4.00;;;;;;;39.94;8.34;102598.03;5039112;28;20052;-61
2023/02/07 11:35:18;;;;;;;6.53;6.00;;;;;;;40.16;8.08;102598.09;5041858;28;20611;-60